Impacts METAR Board
IDs:

KMEM - Memphis Intl, TN, US

Updated at: 1500 UTC 03 Dec 2021
Potential Impact None Slight Moderate High
Time 03/03Z 03/04Z 03/05Z 03/06Z 03/07Z 03/08Z 03/09Z 03/10Z 03/11Z 03/12Z 03/13Z 03/14Z 03/15Z
Temp60 59 61 57 53 53 50 51 54 53 51 57 63
Dewpt48 48 49 48 47 47 46 46 48 48 47 52 55
Altim30.07 30.07 30.07 30.06 30.04 30.05 30.04 30.04 30.03 30.04 30.05 30.05 30.06
VIS10 10 10 10 10 10 10 10 10 10 10 10 10
CIG-- -- -- -- -- -- -- -- -- -- -- -- --
CoverCLRCLRCLRCLRCLRCLRCLRCLRCLRCLRFEWFEWSCT
FltCatVFRVFRVFRVFRVFRVFRVFRVFRVFRVFRVFRVFRVFR
WX--------------------------
WDir21021002001901900210210200180200200
WSpd4 5 5 4 3 3 0 4 7 4 4 3 4
WGst-- -- -- -- -- -- -- -- -- -- -- -- --
Raw hourly METARs
KMEM 030254Z 21004KT 10SM CLR 16/09 A3007 RMK AO2 SLP181 T01560089 53003 $
KMEM 030354Z 21005KT 10SM CLR 15/09 A3007 RMK AO2 SLP179 T01500089 $
KMEM 030454Z VRB05KT 10SM CLR 16/09 A3007 RMK AO2 SLP179 T01610094 $
KMEM 030554Z 20004KT 10SM CLR 14/09 A3006 RMK AO2 SLP176 T01390089 10183 20139 402330089 58003 $
KMEM 030654Z 19003KT 10SM CLR 12/08 A3004 RMK AO2 SLP172 T01170083 $
KMEM 030754Z 19003KT 10SM CLR 12/08 A3005 RMK AO2 SLP172 T01170083 $
KMEM 030854Z 00000KT 10SM CLR 10/08 A3004 RMK AO2 SLP170 T01000078 56006 $
KMEM 030954Z 21004KT 10SM CLR 11/08 A3004 RMK AO2 SLP170 T01060078 $
KMEM 031054Z 21007KT 10SM CLR 12/09 A3003 RMK AO2 SLP166 T01220089 $
KMEM 031154Z 20004KT 10SM CLR 12/09 A3004 RMK AO2 SLP171 T01170089 10139 20100 53000 $
KMEM 031254Z 18004KT 10SM FEW150 FEW250 11/08 A3005 RMK AO2 SLP174 T01060083 $
KMEM 031354Z 20003KT 10SM FEW150 FEW250 14/11 A3005 RMK AO2 SLP175 T01390111 $
KMEM 031454Z 20004KT 10SM FEW150 SCT250 17/13 A3006 RMK AO2 SLP178 T01720128 53007 $



Page loaded:  15:49 UTC  |   07:49 AM Pacific  |   08:49 AM Mountain  |   09:49 AM Central  |   10:49 AM Eastern

 

ADVISORIES

FORECASTS

FORECASTS

OBSERVATIONS

USER TOOLS

ABOUT US